Time;durP1;ratioP1;P1;durP2;ratioP2;P2;SDS_P1;SDS_P2;PMS_P1;PMS_P2;Temp;Humidity;BMP_temperature;BMP_pressure;BME280_temperature;BME280_humidity;BME280_pressure;Samples;Min_cycle;Max_cycle;Signal;HPM_P1;HPM_P2
2023/12/31 00:00:57;;;;;;;7.45;1.88;;;;;;;-146.25;100.00;52591.25;2087337;28;35602;-70
2023/12/31 00:02:02;;;;;;;4.35;1.60;;;;;;;-146.25;100.00;52595.28;2078899;28;38415;-70
2023/12/31 00:03:03;;;;;;;5.30;1.65;;;;;;;-146.25;100.00;52589.22;2087579;28;34048;-71
2023/12/31 00:04:05;;;;;;;4.82;1.65;;;;;;;-146.25;100.00;52556.75;2095712;28;31848;-71
2023/12/31 00:05:07;;;;;;;7.32;1.52;;;;;;;-146.25;100.00;52593.25;2096091;28;34496;-71
2023/12/31 00:06:11;;;;;;;5.90;1.70;;;;;;;-146.25;100.00;52611.50;2096300;28;20857;-71
2023/12/31 00:07:13;;;;;;;4.55;1.90;;;;;;;-146.25;100.00;52579.06;2095972;28;36820;-70
2023/12/31 00:08:15;;;;;;;5.00;1.88;;;;;;;-146.25;100.00;52558.78;2095746;28;37854;-71
2023/12/31 00:09:17;;;;;;;6.93;1.48;;;;;;;-146.25;100.00;52605.44;2096221;28;34852;-71
2023/12/31 00:10:18;;;;;;;4.07;1.27;;;;;;;-146.25;100.00;52615.56;2094881;28;36435;-71
2023/12/31 00:11:21;;;;;;;5.50;1.58;;;;;;;-146.25;100.00;52591.25;2087723;28;20151;-71
2023/12/31 00:12:27;;;;;;;6.22;1.48;;;;;;;-146.25;100.00;52613.53;2087244;28;35657;-71
2023/12/31 00:13:29;;;;;;;7.70;2.13;;;;;;;-146.25;100.00;52587.19;2095838;28;35438;-71
2023/12/31 00:14:31;;;;;;;8.30;2.13;;;;;;;-146.25;100.00;52615.56;2095759;28;32958;-70
2023/12/31 00:15:33;;;;;;;5.43;1.95;;;;;;;-146.25;100.00;52591.25;2095864;28;36395;-71
2023/12/31 00:16:34;;;;;;;5.45;2.08;;;;;;;-146.25;100.00;52597.31;2096726;28;20033;-71
2023/12/31 00:17:39;;;;;;;6.35;1.98;;;;;;;-146.25;100.00;52587.19;2096539;28;20883;-70
2023/12/31 00:18:41;;;;;;;5.57;2.00;;;;;;;-146.25;100.00;52605.44;2087020;28;35688;-71
2023/12/31 00:19:43;;;;;;;6.28;1.52;;;;;;;-146.25;100.00;52625.72;2087613;28;34907;-70
2023/12/31 00:20:44;;;;;;;4.75;1.83;;;;;;;-146.25;100.00;52579.06;2094704;28;38550;-69
2023/12/31 00:21:46;;;;;;;5.30;1.42;;;;;;;-146.25;100.00;52591.25;2093872;28;34475;-70
2023/12/31 00:22:48;;;;;;;5.18;1.50;;;;;;;-146.25;100.00;52564.88;2096139;28;33139;-70
2023/12/31 00:23:50;;;;;;;6.78;1.33;;;;;;;-146.25;100.00;52566.91;2087698;28;37327;-69
2023/12/31 00:24:54;;;;;;;6.50;1.40;;;;;;;-146.25;100.00;52579.06;2086535;28;32114;-69
2023/12/31 00:25:56;;;;;;;6.82;1.40;;;;;;;-146.25;100.00;52579.06;2087703;28;28349;-70
2023/12/31 00:26:58;;;;;;;6.43;1.75;;;;;;;-146.25;100.00;52583.13;2081302;28;38345;-71
2023/12/31 00:27:59;;;;;;;8.52;1.75;;;;;;;-146.25;100.00;52587.19;2087131;28;32917;-74
2023/12/31 00:29:01;;;;;;;7.15;1.70;;;;;;;-146.25;100.00;52575.00;2085717;28;26954;-68
2023/12/31 00:30:04;;;;;;;5.93;1.20;;;;;;;-146.25;100.00;52583.13;2087375;28;25577;-68
2023/12/31 00:31:05;;;;;;;4.93;1.23;;;;;;;-146.25;100.00;52585.16;2095999;28;30462;-69
2023/12/31 00:32:07;;;;;;;4.50;1.10;;;;;;;-146.25;100.00;52577.03;2087705;28;20801;-69
2023/12/31 00:33:09;;;;;;;6.32;1.27;;;;;;;-146.25;100.00;52587.19;2078596;28;30535;-69
2023/12/31 00:34:13;;;;;;;3.70;1.00;;;;;;;-146.25;100.00;52633.81;2086927;28;34509;-68
2023/12/31 00:35:15;;;;;;;2.78;1.05;;;;;;;-146.25;100.00;52625.72;2096313;28;20800;-69
2023/12/31 00:36:17;;;;;;;5.40;1.23;;;;;;;-146.25;100.00;52603.41;2096211;28;30766;-70
2023/12/31 00:37:19;;;;;;;6.30;1.10;;;;;;;-146.25;100.00;52599.34;2087547;28;24262;-71
2023/12/31 00:38:20;;;;;;;3.58;1.10;;;;;;;-146.25;100.00;52601.38;2087784;28;20163;-71
2023/12/31 00:39:24;;;;;;;3.28;0.90;;;;;;;-146.25;100.00;52619.63;2096376;28;22509;-70
2023/12/31 00:40:26;;;;;;;4.63;1.00;;;;;;;-146.25;100.00;52603.41;2086774;28;22145;-71
2023/12/31 00:41:28;;;;;;;3.10;1.00;;;;;;;-146.25;100.00;52579.06;2087896;28;22655;-70
2023/12/31 00:42:30;;;;;;;4.38;0.95;;;;;;;-146.25;100.00;52619.63;2096232;28;32878;-70
2023/12/31 00:43:32;;;;;;;5.82;0.70;;;;;;;-146.25;100.00;52579.06;2094958;28;20119;-69
2023/12/31 00:44:35;;;;;;;3.47;1.00;;;;;;;-146.25;100.00;52585.16;2087223;28;20053;-70
2023/12/31 00:45:37;;;;;;;5.05;0.80;;;;;;;-146.25;100.00;52613.53;2087074;28;27319;-70
2023/12/31 00:46:38;;;;;;;3.45;0.88;;;;;;;-146.25;100.00;52597.31;2087803;28;20025;-70
2023/12/31 00:47:40;;;;;;;3.80;1.08;;;;;;;-146.25;100.00;52589.22;2079060;28;23744;-71
2023/12/31 00:48:43;;;;;;;2.92;1.30;;;;;;;-146.25;100.00;52570.97;2079512;28;20139;-71
2023/12/31 00:49:49;;;;;;;5.57;1.27;;;;;;;-146.25;100.00;52579.06;2078347;28;20124;-70
2023/12/31 00:50:50;;;;;;;3.45;1.10;;;;;;;-146.25;100.00;52579.06;2087710;28;30986;-71
2023/12/31 00:51:55;;;;;;;4.75;1.10;;;;;;;-146.25;100.00;52575.00;2088943;28;20122;-71
2023/12/31 00:52:57;;;;;;;4.88;1.10;;;;;;;-146.25;100.00;52566.91;2089247;28;23279;-72
2023/12/31 00:53:59;;;;;;;5.13;1.23;;;;;;;-146.25;100.00;52585.16;2095808;28;35041;-70
2023/12/31 00:55:02;;;;;;;6.13;1.13;;;;;;;-146.25;100.00;52595.28;2088811;28;20084;-70
2023/12/31 00:56:08;;;;;;;3.47;1.10;;;;;;;-146.25;100.00;52603.41;2088528;28;32774;-70
2023/12/31 00:57:09;;;;;;;3.00;1.00;;;;;;;-146.25;100.00;52643.97;2097608;28;30056;-71
2023/12/31 00:58:11;;;;;;;4.63;1.20;;;;;;;-146.25;100.00;52585.16;2097671;28;26985;-70
2023/12/31 00:59:13;;;;;;;11.18;2.20;;;;;;;-146.25;100.00;52601.38;2097230;28;27130;-71
2023/12/31 01:00:15;;;;;;;3.78;1.20;;;;;;;-146.25;100.00;52587.19;2080468;28;20044;-71
2023/12/31 01:01:17;;;;;;;2.40;1.10;;;;;;;-146.25;100.00;52615.56;2080710;28;30296;-71
2023/12/31 01:02:19;;;;;;;4.80;1.33;;;;;;;-146.25;100.00;52593.25;2097446;28;29032;-71
2023/12/31 01:03:21;;;;;;;5.70;1.10;;;;;;;-146.25;100.00;52607.47;2097748;28;26833;-71
2023/12/31 01:04:22;;;;;;;2.60;0.90;;;;;;;-146.25;100.00;52568.94;2097032;28;30199;-71
2023/12/31 01:05:27;;;;;;;6.05;1.48;;;;;;;-146.25;100.00;52619.63;2088719;28;20053;-71
2023/12/31 01:06:29;;;;;;;5.18;1.25;;;;;;;-146.25;100.00;52631.78;2088159;28;30103;-71
2023/12/31 01:07:31;;;;;;;3.55;0.93;;;;;;;-146.25;100.00;52619.63;2088611;28;25724;-71
2023/12/31 01:08:33;;;;;;;5.32;1.23;;;;;;;-146.25;100.00;52601.38;2089112;28;20135;-72
2023/12/31 01:09:35;;;;;;;4.18;0.93;;;;;;;-146.25;100.00;52575.00;2097249;28;27368;-71
2023/12/31 01:10:36;;;;;;;4.82;1.30;;;;;;;-146.25;100.00;52599.34;2097450;28;25215;-71
2023/12/31 01:11:38;;;;;;;5.88;1.10;;;;;;;-146.25;100.00;52625.72;2088500;28;26506;-72
2023/12/31 01:12:42;;;;;;;3.53;0.93;;;;;;;-146.25;100.00;52603.41;2088223;28;28857;-72
2023/12/31 01:13:43;;;;;;;5.68;1.00;;;;;;;-146.25;100.00;52607.47;2097402;28;28006;-71
2023/12/31 01:14:45;;;;;;;6.03;1.00;;;;;;;-146.25;100.00;52591.25;2096520;28;21190;-72
2023/12/31 01:15:47;;;;;;;3.45;0.80;;;;;;;-146.25;100.00;52591.25;2088109;28;32373;-71
2023/12/31 01:16:49;;;;;;;4.07;1.08;;;;;;;-146.25;100.00;52575.00;2088159;28;30592;-71
2023/12/31 01:17:51;;;;;;;3.08;1.15;;;;;;;-146.25;100.00;52575.00;2097228;28;26458;-72
2023/12/31 01:18:53;;;;;;;3.40;0.95;;;;;;;-146.25;100.00;52607.47;2080117;28;26987;-71
2023/12/31 01:19:55;;;;;;;4.72;1.08;;;;;;;-146.25;100.00;52583.13;2080783;28;20053;-71
2023/12/31 01:20:57;;;;;;;5.13;1.00;;;;;;;-146.25;100.00;52611.50;2087604;28;20983;-71
2023/12/31 01:21:58;;;;;;;4.40;0.93;;;;;;;-146.25;100.00;52609.50;2088645;28;20978;-71
2023/12/31 01:23:00;;;;;;;5.57;1.10;;;;;;;-146.25;100.00;52609.50;2097569;28;20076;-71
2023/12/31 01:24:03;;;;;;;4.53;0.90;;;;;;;-146.25;100.00;52587.19;2097404;28;30073;-72
2023/12/31 01:25:06;;;;;;;5.43;0.93;;;;;;;-146.25;100.00;52607.47;2096595;28;24610;-71
2023/12/31 01:26:08;;;;;;;5.55;1.00;;;;;;;-146.25;100.00;52641.94;2097569;28;20034;-71
2023/12/31 01:27:09;;;;;;;5.03;0.95;;;;;;;-146.25;100.00;52619.63;2088085;28;25924;-72
2023/12/31 01:28:11;;;;;;;3.80;0.98;;;;;;;-146.25;100.00;52593.25;2088602;28;20041;-71
2023/12/31 01:29:15;;;;;;;3.83;0.90;;;;;;;-146.25;100.00;52591.25;2097343;28;20029;-71
2023/12/31 01:30:17;;;;;;;5.15;1.45;;;;;;;-146.25;100.00;52595.28;2096668;28;36102;-70
2023/12/31 01:31:19;;;;;;;3.40;0.90;;;;;;;-146.25;100.00;52575.00;2097490;28;24801;-71
2023/12/31 01:32:21;;;;;;;3.05;0.95;;;;;;;-146.25;100.00;52595.28;2097641;28;20041;-70
2023/12/31 01:33:23;;;;;;;4.40;1.15;;;;;;;-146.25;100.00;52560.81;2097167;28;31044;-71
2023/12/31 01:34:25;;;;;;;4.10;0.70;;;;;;;-146.25;100.00;52579.06;2097432;28;30225;-71
2023/12/31 01:35:27;;;;;;;4.28;0.90;;;;;;;-146.25;100.00;52593.25;2087367;28;20042;-71
2023/12/31 01:36:29;;;;;;;4.03;1.23;;;;;;;-146.25;100.00;52593.25;2087583;28;22906;-71
2023/12/31 01:37:32;;;;;;;3.83;0.93;;;;;;;-146.25;100.00;52587.19;2088131;28;20119;-71
2023/12/31 01:38:35;;;;;;;2.10;0.80;;;;;;;-146.25;100.00;52575.00;2080772;28;20050;-71
2023/12/31 01:39:37;;;;;;;5.90;0.90;;;;;;;-146.25;100.00;52609.50;2087676;28;33220;-72
2023/12/31 01:40:39;;;;;;;6.18;1.05;;;;;;;-146.25;100.00;52619.63;2097305;28;30639;-71
2023/12/31 01:41:41;;;;;;;4.70;0.75;;;;;;;-146.25;100.00;52591.25;2097095;28;24474;-71
2023/12/31 01:42:44;;;;;;;3.45;0.98;;;;;;;-146.25;100.00;52564.88;2097346;28;29120;-71
2023/12/31 01:43:47;;;;;;;4.22;0.80;;;;;;;-146.25;100.00;52589.22;2088087;28;20076;-71
2023/12/31 01:44:48;;;;;;;3.22;0.90;;;;;;;-146.25;100.00;52591.25;2080554;28;28383;-70
2023/12/31 01:45:50;;;;;;;4.40;0.93;;;;;;;-146.25;100.00;52581.09;2080279;28;29074;-71
2023/12/31 01:46:52;;;;;;;4.30;0.93;;;;;;;-146.25;100.00;52623.69;2079459;28;21283;-70
2023/12/31 01:47:54;;;;;;;2.03;0.63;;;;;;;-146.25;100.00;52589.22;2079806;28;28606;-70
2023/12/31 01:48:56;;;;;;;6.93;0.80;;;;;;;-146.25;100.00;52552.72;2079587;28;29028;-70
2023/12/31 01:50:01;;;;;;;3.00;0.70;;;;;;;-146.25;100.00;52585.16;2080449;28;20088;-70
2023/12/31 01:51:06;;;;;;;5.15;0.73;;;;;;;-146.25;100.00;52607.47;2089023;28;27356;-69
2023/12/31 01:52:08;;;;;;;5.93;0.80;;;;;;;-146.25;100.00;52587.19;2088281;28;22142;-71
2023/12/31 01:53:12;;;;;;;4.95;0.98;;;;;;;-146.25;100.00;52585.16;2080707;28;22127;-69
2023/12/31 01:54:15;;;;;;;2.35;0.90;;;;;;;-146.25;100.00;52595.28;2080302;28;25697;-68
2023/12/31 01:55:19;;;;;;;2.30;0.57;;;;;;;-146.25;100.00;52560.81;2088785;28;25427;-69
2023/12/31 01:56:23;;;;;;;4.32;0.88;;;;;;;-146.25;100.00;52625.72;2088296;28;20046;-69
2023/12/31 01:57:29;;;;;;;3.00;0.60;;;;;;;-146.25;100.00;52607.47;2088603;28;23440;-69
2023/12/31 01:58:31;;;;;;;4.47;0.68;;;;;;;-146.25;100.00;52585.16;2079754;28;23066;-69
2023/12/31 01:59:33;;;;;;;4.20;0.77;;;;;;;-146.25;100.00;52595.28;2072668;28;20911;-69
2023/12/31 02:00:35;;;;;;;4.78;0.82;;;;;;;-146.25;100.00;52627.75;2079920;28;20172;-69
2023/12/31 02:01:37;;;;;;;2.05;0.80;;;;;;;-146.25;100.00;52556.75;2088023;28;20891;-69
2023/12/31 02:02:42;;;;;;;4.28;1.00;;;;;;;-146.25;100.00;52577.03;2078494;28;28851;-69
2023/12/31 02:03:46;;;;;;;6.05;1.02;;;;;;;-146.25;100.00;52585.16;2072904;28;20939;-69
2023/12/31 02:04:48;;;;;;;3.75;0.80;;;;;;;-146.25;100.00;52621.66;2071482;28;20105;-69
2023/12/31 02:05:50;;;;;;;4.45;0.75;;;;;;;-146.25;100.00;52595.28;2063900;28;27534;-69
2023/12/31 02:06:53;;;;;;;3.85;0.80;;;;;;;-146.25;100.00;52603.41;2072639;28;20133;-68
2023/12/31 02:07:55;;;;;;;3.22;0.73;;;;;;;-146.25;100.00;52554.75;2088361;28;22803;-69
2023/12/31 02:08:59;;;;;;;4.63;0.88;;;;;;;-146.25;100.00;52566.91;2088216;28;30402;-69
2023/12/31 02:10:02;;;;;;;4.05;0.90;;;;;;;-146.25;100.00;52603.41;2080015;28;20929;-69
2023/12/31 02:11:07;;;;;;;4.15;0.70;;;;;;;-146.25;100.00;52583.13;2088640;28;20042;-69
2023/12/31 02:12:10;;;;;;;1.42;0.70;;;;;;;-146.25;100.00;52615.56;2080319;28;20977;-69
2023/12/31 02:13:12;;;;;;;5.03;0.63;;;;;;;-146.25;100.00;52631.78;2072714;28;20082;-69
2023/12/31 02:14:14;;;;;;;5.30;0.88;;;;;;;-146.25;100.00;52619.63;2088013;28;25671;-69
2023/12/31 02:15:36;;;;;;;3.30;0.68;;;;;;;-146.25;100.00;52591.25;2096170;28;22267;-69
2023/12/31 02:16:38;;;;;;;3.95;0.60;;;;;;;-146.25;100.00;52587.19;2087950;28;29055;-69
2023/12/31 02:17:42;;;;;;;4.00;0.80;;;;;;;-146.25;100.00;52611.50;2088750;28;21639;-69
2023/12/31 02:18:44;;;;;;;2.92;0.65;;;;;;;-146.25;100.00;52603.41;2087387;28;29715;-69
2023/12/31 02:19:46;;;;;;;4.20;0.70;;;;;;;-146.25;100.00;52601.38;2088288;28;20049;-70
2023/12/31 02:20:48;;;;;;;3.88;0.80;;;;;;;-146.25;100.00;52599.34;2088277;28;20049;-70
2023/12/31 02:21:51;;;;;;;3.40;0.95;;;;;;;-146.25;100.00;52581.09;2080369;28;20072;-70
2023/12/31 02:22:53;;;;;;;5.57;1.05;;;;;;;-146.25;100.00;52591.25;2080380;28;20119;-70
2023/12/31 02:23:55;;;;;;;3.78;0.85;;;;;;;-146.25;100.00;52609.50;2087895;28;34008;-70
2023/12/31 02:25:05;;;;;;;3.45;0.57;;;;;;;-146.25;100.00;52617.59;2096943;28;26393;-69
2023/12/31 02:26:09;;;;;;;3.03;0.75;;;;;;;-146.25;100.00;52570.97;2088550;28;20830;-70
2023/12/31 02:27:14;;;;;;;1.80;0.60;;;;;;;-146.25;100.00;52607.47;2089269;28;25205;-69
2023/12/31 02:28:16;;;;;;;3.72;0.75;;;;;;;-146.25;100.00;52599.34;2097103;28;20148;-70
2023/12/31 02:29:19;;;;;;;5.15;0.70;;;;;;;-146.25;100.00;52615.56;2096626;28;20830;-69
2023/12/31 02:30:23;;;;;;;4.20;0.70;;;;;;;-146.25;100.00;52625.72;2088021;28;25536;-70
2023/12/31 02:31:24;;;;;;;2.15;0.75;;;;;;;-146.25;100.00;52562.84;2088335;28;22656;-70
2023/12/31 02:32:31;;;;;;;2.30;0.60;;;;;;;-146.25;100.00;52611.50;2097415;28;22875;-70
2023/12/31 02:33:32;;;;;;;2.03;0.60;;;;;;;-146.25;100.00;52595.28;2097234;28;25523;-70
2023/12/31 02:34:34;;;;;;;3.65;0.75;;;;;;;-146.25;100.00;52595.28;2087503;28;27977;-70
2023/12/31 02:35:37;;;;;;;2.88;0.60;;;;;;;-146.25;100.00;52609.50;2087530;28;20033;-70
2023/12/31 02:36:39;;;;;;;5.57;0.80;;;;;;;-146.25;100.00;52623.69;2097153;28;28886;-70
2023/12/31 02:37:42;;;;;;;3.78;0.65;;;;;;;-146.25;100.00;52575.00;2096904;28;20146;-70
2023/12/31 02:38:48;;;;;;;3.05;0.50;;;;;;;-146.25;100.00;52619.63;2097642;28;20925;-69
2023/12/31 02:39:50;;;;;;;3.30;0.60;;;;;;;-146.25;100.00;52611.50;2096267;28;29328;-70
2023/12/31 02:40:51;;;;;;;3.20;0.50;;;;;;;-146.25;100.00;52597.31;2088054;28;20041;-70
2023/12/31 02:41:54;;;;;;;2.97;0.60;;;;;;;-146.25;100.00;52589.22;2080114;28;20876;-70
2023/12/31 02:42:56;;;;;;;4.22;1.23;;;;;;;-146.25;100.00;52607.47;2088158;28;22619;-70
2023/12/31 02:44:01;;;;;;;1.52;0.50;;;;;;;-146.25;100.00;52575.00;2096579;28;20044;-69
2023/12/31 02:45:03;;;;;;;2.92;0.60;;;;;;;-146.25;100.00;52611.50;2096578;28;30961;-69
2023/12/31 02:46:05;;;;;;;6.72;0.73;;;;;;;-146.25;100.00;52595.28;2086446;28;31952;-69
2023/12/31 02:47:11;;;;;;;3.47;0.65;;;;;;;-146.25;100.00;52568.94;2088210;28;20033;-70
2023/12/31 02:48:12;;;;;;;2.22;0.60;;;;;;;-146.25;100.00;52625.72;2096007;28;33943;-70
2023/12/31 02:49:14;;;;;;;4.05;0.65;;;;;;;-146.25;100.00;52599.34;2094846;28;26771;-70
2023/12/31 02:50:16;;;;;;;3.50;0.57;;;;;;;-146.25;100.00;52587.19;2096505;28;28061;-70
2023/12/31 02:51:18;;;;;;;2.67;0.63;;;;;;;-146.25;100.00;52619.63;2087968;28;26156;-70
2023/12/31 02:52:20;;;;;;;3.13;0.93;;;;;;;-146.25;100.00;52585.16;2079231;28;25415;-70
2023/12/31 02:53:21;;;;;;;2.35;0.60;;;;;;;-146.25;100.00;52611.50;2087743;28;20099;-69
2023/12/31 02:54:23;;;;;;;2.28;0.60;;;;;;;-146.25;100.00;52573.00;2096567;28;20127;-69
2023/12/31 02:55:25;;;;;;;2.85;0.80;;;;;;;-146.25;100.00;52639.91;2097132;28;22547;-70
2023/12/31 02:56:27;;;;;;;3.20;0.55;;;;;;;-146.25;100.00;52581.09;2086985;28;34706;-69
2023/12/31 02:57:29;;;;;;;1.50;0.60;;;;;;;-146.25;100.00;52595.28;2087877;28;28263;-69
2023/12/31 02:58:31;;;;;;;2.55;0.68;;;;;;;-146.25;100.00;52587.19;2087770;28;20206;-70
2023/12/31 02:59:36;;;;;;;2.53;0.80;;;;;;;-146.25;100.00;52605.44;2088025;28;20077;-70
2023/12/31 03:00:41;;;;;;;4.45;0.82;;;;;;;-146.25;100.00;52607.47;2087524;28;20053;-70
2023/12/31 03:01:43;;;;;;;2.00;0.47;;;;;;;-146.25;100.00;52568.94;2087155;28;20079;-70
2023/12/31 03:02:45;;;;;;;3.25;0.68;;;;;;;-146.25;100.00;52585.16;2087820;28;20092;-70
2023/12/31 03:03:49;;;;;;;3.75;0.60;;;;;;;-146.25;100.00;52617.59;2088659;28;20850;-70
2023/12/31 03:04:50;;;;;;;3.88;0.50;;;;;;;-146.25;100.00;52566.91;2096556;28;27875;-68
2023/12/31 03:05:52;;;;;;;5.60;0.60;;;;;;;-146.25;100.00;52577.03;2087677;28;23468;-69
2023/12/31 03:06:54;;;;;;;1.30;0.35;;;;;;;-146.25;100.00;52587.19;2087891;28;20091;-69
2023/12/31 03:07:56;;;;;;;2.28;0.45;;;;;;;-146.25;100.00;52603.41;2096773;28;31274;-69
2023/12/31 03:09:01;;;;;;;3.60;0.50;;;;;;;-146.25;100.00;52554.75;2096429;28;26894;-68
2023/12/31 03:10:08;;;;;;;2.72;0.40;;;;;;;-146.25;100.00;52593.25;2087857;28;33407;-69
2023/12/31 03:11:09;;;;;;;3.92;0.63;;;;;;;-146.25;100.00;52607.47;2089165;28;29158;-69
2023/12/31 03:12:11;;;;;;;2.28;0.45;;;;;;;-146.25;100.00;52603.41;2097388;28;20029;-69
2023/12/31 03:13:13;;;;;;;2.17;0.40;;;;;;;-146.25;100.00;52607.47;2096755;28;25029;-69
2023/12/31 03:14:17;;;;;;;5.88;0.65;;;;;;;-146.25;100.00;52583.13;2095985;28;27962;-68
2023/12/31 03:15:20;;;;;;;3.53;0.40;;;;;;;-146.25;100.00;52538.53;2095378;28;20041;-69
2023/12/31 03:16:24;;;;;;;3.58;0.50;;;;;;;-146.25;100.00;52591.25;2096929;28;20041;-69
2023/12/31 03:17:26;;;;;;;3.38;0.55;;;;;;;-146.25;100.00;52589.22;2096172;28;27808;-69
2023/12/31 03:18:28;;;;;;;2.83;0.70;;;;;;;-146.25;100.00;52583.13;2087784;28;23776;-69
2023/12/31 03:19:35;;;;;;;3.15;0.70;;;;;;;-146.25;100.00;52581.09;2087055;28;23086;-69
2023/12/31 03:20:41;;;;;;;1.90;0.45;;;;;;;-146.25;100.00;52593.25;2079739;28;20124;-69
2023/12/31 03:21:42;;;;;;;2.15;0.40;;;;;;;-146.25;100.00;52621.66;2072961;28;20152;-69
2023/12/31 03:22:49;;;;;;;2.25;0.40;;;;;;;-146.25;100.00;52603.41;2079509;28;25021;-68
2023/12/31 03:23:51;;;;;;;1.48;0.50;;;;;;;-146.25;100.00;52611.50;2071996;28;20185;-69
2023/12/31 03:24:53;;;;;;;1.45;0.40;;;;;;;-146.25;100.00;52583.13;2088065;28;27992;-71
2023/12/31 03:25:56;;;;;;;2.40;0.43;;;;;;;-146.25;100.00;52593.25;2095554;28;20107;-71
2023/12/31 03:26:58;;;;;;;4.07;0.57;;;;;;;-146.25;100.00;52619.63;2096379;28;24028;-70
2023/12/31 03:28:00;;;;;;;1.85;0.40;;;;;;;-146.25;100.00;52603.41;2096346;28;30230;-70
2023/12/31 03:29:02;;;;;;;2.53;0.50;;;;;;;-146.25;100.00;52570.97;2097083;28;20090;-67
2023/12/31 03:30:05;;;;;;;2.25;0.40;;;;;;;-146.25;100.00;52589.22;2087261;28;29340;-69
2023/12/31 03:31:09;;;;;;;2.90;0.52;;;;;;;-146.25;100.00;52599.34;2088033;28;24682;-70
2023/12/31 03:32:11;;;;;;;3.22;0.68;;;;;;;-146.25;100.00;52591.25;2087114;28;20460;-70
2023/12/31 03:33:13;;;;;;;3.22;0.65;;;;;;;-146.25;100.00;52601.38;2079852;28;29743;-70
2023/12/31 03:34:15;;;;;;;2.72;0.50;;;;;;;-146.25;100.00;52607.47;2087925;28;28219;-70
2023/12/31 03:35:17;;;;;;;3.25;0.50;;;;;;;-146.25;100.00;52617.59;2079896;28;20950;-69
2023/12/31 03:36:20;;;;;;;3.17;0.40;;;;;;;-146.25;100.00;52603.41;2079443;28;28426;-70
2023/12/31 03:37:23;;;;;;;2.50;0.40;;;;;;;-146.25;100.00;52627.75;2088868;28;20033;-70
2023/12/31 03:38:26;;;;;;;2.28;0.40;;;;;;;-146.25;100.00;52625.72;2088212;28;20037;-70
2023/12/31 03:39:28;;;;;;;1.20;0.40;;;;;;;-146.25;100.00;52615.56;2088321;28;30717;-69
2023/12/31 03:40:30;;;;;;;2.80;0.40;;;;;;;-146.25;100.00;52615.56;2091394;28;20041;-70
2023/12/31 03:41:32;;;;;;;2.55;0.40;;;;;;;-146.25;100.00;52587.19;2087636;28;20119;-69
2023/12/31 03:42:34;;;;;;;3.35;0.50;;;;;;;-146.25;100.00;52573.00;2070814;28;30720;-70
2023/12/31 03:43:36;;;;;;;1.38;0.40;;;;;;;-146.25;100.00;52621.66;2080135;28;20157;-69
2023/12/31 03:44:38;;;;;;;1.20;0.47;;;;;;;-146.25;100.00;52635.84;2095853;28;29085;-70
2023/12/31 03:45:39;;;;;;;2.50;0.55;;;;;;;-146.25;100.00;52581.09;2096721;28;26004;-70
2023/12/31 03:46:42;;;;;;;2.75;0.35;;;;;;;-146.25;100.00;52583.13;2087069;28;34086;-69
2023/12/31 03:47:43;;;;;;;2.10;0.40;;;;;;;-146.25;100.00;52611.50;2087805;28;29835;-69
2023/12/31 03:48:46;;;;;;;2.85;0.52;;;;;;;-146.25;100.00;52609.50;2096774;28;20064;-69
2023/12/31 03:49:48;;;;;;;2.00;0.30;;;;;;;-146.25;100.00;52595.28;2096681;28;26330;-69
2023/12/31 03:50:51;;;;;;;2.40;0.40;;;;;;;-146.25;100.00;52599.34;2087350;28;20155;-69
2023/12/31 03:51:53;;;;;;;3.40;0.45;;;;;;;-146.25;100.00;52591.25;2087839;28;20038;-70
2023/12/31 03:52:57;;;;;;;2.42;0.30;;;;;;;-146.25;100.00;52595.28;2096217;28;28548;-69
2023/12/31 03:53:58;;;;;;;1.75;0.30;;;;;;;-146.25;100.00;52609.50;2096530;28;28598;-70
2023/12/31 03:55:01;;;;;;;1.00;0.25;;;;;;;-146.25;100.00;52585.16;2079184;28;20041;-70
2023/12/31 03:56:03;;;;;;;1.13;0.32;;;;;;;-146.25;100.00;52605.44;2069505;28;20962;-70
2023/12/31 03:57:05;;;;;;;1.67;0.40;;;;;;;-146.25;100.00;52609.50;2079532;28;20045;-69
2023/12/31 03:58:09;;;;;;;1.92;0.35;;;;;;;-146.25;100.00;52577.03;2086963;28;34837;-70
2023/12/31 03:59:11;;;;;;;2.08;0.30;;;;;;;-146.25;100.00;52591.25;2086772;28;28038;-69
2023/12/31 04:00:13;;;;;;;2.70;0.60;;;;;;;-146.25;100.00;52570.97;2079456;28;20046;-70
2023/12/31 04:01:15;;;;;;;2.83;0.50;;;;;;;-146.25;100.00;52575.00;2079550;28;20034;-70
2023/12/31 04:02:17;;;;;;;2.42;0.40;;;;;;;-146.25;100.00;52609.50;2088272;28;30650;-69
2023/12/31 04:03:22;;;;;;;4.20;0.40;;;;;;;-146.25;100.00;52611.50;2087771;28;26565;-69
2023/12/31 04:04:25;;;;;;;4.43;0.63;;;;;;;-146.25;100.00;52591.25;2087645;28;30107;-70
2023/12/31 04:05:27;;;;;;;2.80;0.47;;;;;;;-146.25;100.00;52579.06;2079259;28;20034;-70
2023/12/31 04:06:31;;;;;;;2.60;0.70;;;;;;;-146.25;100.00;52562.84;2079760;28;32060;-70
2023/12/31 04:07:33;;;;;;;3.20;0.40;;;;;;;-146.25;100.00;52607.47;2086941;28;23464;-69
2023/12/31 04:08:37;;;;;;;3.03;0.40;;;;;;;-146.25;100.00;52605.44;2087357;28;26907;-70
2023/12/31 04:09:43;;;;;;;4.47;0.40;;;;;;;-146.25;100.00;52597.31;2087702;28;20767;-69
2023/12/31 04:10:45;;;;;;;2.78;0.50;;;;;;;-146.25;100.00;52595.28;2092441;28;20044;-70
2023/12/31 04:11:47;;;;;;;1.23;0.35;;;;;;;-146.25;100.00;52579.06;2086420;28;34268;-70
2023/12/31 04:12:49;;;;;;;2.35;0.50;;;;;;;-146.25;100.00;52593.25;2087546;28;29724;-70
2023/12/31 04:13:51;;;;;;;2.22;0.50;;;;;;;-146.25;100.00;52583.13;2095516;28;20163;-69
2023/12/31 04:14:53;;;;;;;1.80;0.57;;;;;;;-146.25;100.00;52579.06;2095338;28;31623;-70
2023/12/31 04:15:54;;;;;;;3.22;0.47;;;;;;;-146.25;100.00;52605.44;2095981;28;30506;-70
2023/12/31 04:16:58;;;;;;;2.83;0.50;;;;;;;-146.25;100.00;52597.31;2096341;28;29267;-70
2023/12/31 04:18:00;;;;;;;4.65;0.55;;;;;;;-146.25;100.00;52611.50;2095796;28;32552;-70
2023/12/31 04:19:02;;;;;;;2.03;0.50;;;;;;;-146.25;100.00;52583.13;2095490;28;30469;-70
2023/12/31 04:20:06;;;;;;;3.20;0.68;;;;;;;-146.25;100.00;52607.47;2096503;28;20045;-69
2023/12/31 04:21:14;;;;;;;1.48;0.47;;;;;;;-146.25;100.00;52599.34;2096865;28;20072;-69
2023/12/31 04:22:18;;;;;;;1.35;0.60;;;;;;;-146.25;100.00;52583.13;2087420;28;25255;-70
2023/12/31 04:23:23;;;;;;;2.55;0.60;;;;;;;-146.25;100.00;52554.75;2087415;28;23001;-70
2023/12/31 04:24:24;;;;;;;1.33;0.50;;;;;;;-146.25;100.00;52579.06;2087445;28;28290;-70
2023/12/31 04:25:26;;;;;;;3.60;0.50;;;;;;;-146.25;100.00;52621.66;2097632;28;20829;-69
2023/12/31 04:26:28;;;;;;;3.47;0.50;;;;;;;-146.25;100.00;52583.13;2096414;28;24118;-68
2023/12/31 04:27:31;;;;;;;1.73;0.40;;;;;;;-146.25;100.00;52617.59;2098067;28;20802;-68
2023/12/31 04:28:33;;;;;;;1.20;0.55;;;;;;;-146.25;100.00;52609.50;2097859;28;20104;-68
2023/12/31 04:29:35;;;;;;;2.78;0.47;;;;;;;-146.25;100.00;52583.13;2088557;28;29478;-68
2023/12/31 04:30:40;;;;;;;2.88;0.60;;;;;;;-146.25;100.00;52573.00;2088598;28;28506;-69
2023/12/31 04:31:46;;;;;;;2.20;0.65;;;;;;;-146.25;100.00;52607.47;2080965;28;20156;-69
2023/12/31 04:32:51;;;;;;;3.10;0.68;;;;;;;-146.25;100.00;52591.25;2082687;28;35754;-69
2023/12/31 04:33:53;;;;;;;3.40;0.60;;;;;;;-146.25;100.00;52585.16;2098057;28;20850;-69
2023/12/31 04:34:55;;;;;;;3.95;0.50;;;;;;;-146.25;100.00;52623.69;2087669;28;24211;-70
2023/12/31 04:35:56;;;;;;;1.77;0.50;;;;;;;-146.25;100.00;52585.16;2080306;28;32199;-70
2023/12/31 04:36:58;;;;;;;2.38;0.55;;;;;;;-146.25;100.00;52589.22;2072109;28;30993;-70
2023/12/31 04:38:00;;;;;;;2.33;0.47;;;;;;;-146.25;100.00;52605.44;2080744;28;20046;-69
2023/12/31 04:39:03;;;;;;;2.35;0.60;;;;;;;-146.25;100.00;52599.34;2088298;28;30671;-70
2023/12/31 04:40:07;;;;;;;3.17;0.60;;;;;;;-146.25;100.00;52605.44;2097290;28;20037;-70
2023/12/31 04:41:21;;;;;;;2.33;0.50;;;;;;;-146.25;100.00;52603.41;2095438;28;20044;-70
2023/12/31 04:42:23;;;;;;;2.80;0.55;;;;;;;-146.25;100.00;52607.47;2088794;28;28090;-69
2023/12/31 04:43:26;;;;;;;1.83;0.57;;;;;;;-146.25;100.00;52597.31;2080613;28;20427;-69
2023/12/31 04:44:28;;;;;;;3.17;0.57;;;;;;;-146.25;100.00;52579.06;2087541;28;29296;-69
2023/12/31 04:45:30;;;;;;;4.32;0.80;;;;;;;-146.25;100.00;52625.72;2079295;28;35489;-69